Íslenskir flugvellir

Veldu flugvelli í þeirri röð sem þeir eiga að birtast og styddu á hnappinn

Uppfært síðast 02.06.2020 - kl. 08:41

SIGMET síðustu 6 klst.

Engin SIGMET skeyti bárust síðustu 6 klst.

Grímsey

METAR síðustu 3 klst

TímiSkeyti
2020-06-02 08.00METAR BIGR 020800Z 26010KT 9999 FEW021 SCT025 OVC043 07/04 Q1024

TAF

TAFBIGR2020-06-02 08.11Z02081726010KT 9999 FEW020 SCT025 OVC042

Allur vindur er réttvísandi bæði í Metar og frá sjálfvirkum veðurstöðvum




Aðrir tengdir vefir



Þetta vefsvæði byggir á Eplica